createdAt,value
2022-10-08T00:01:10.342Z,75.52
2022-10-08T00:03:40.850Z,76.19
2022-10-08T00:06:11.985Z,76.00
2022-10-08T00:08:41.947Z,75.50
2022-10-08T00:11:12.371Z,76.03
2022-10-08T00:13:41.462Z,76.16
2022-10-08T00:16:15.426Z,75.84
2022-10-08T00:18:44.319Z,75.49
2022-10-08T00:21:22.877Z,75.18
2022-10-08T00:23:50.946Z,75.21
2022-10-08T00:26:20.973Z,74.94
2022-10-08T00:28:47.944Z,74.91
2022-10-08T00:31:18.108Z,74.56
2022-10-08T00:33:44.867Z,74.78
2022-10-08T00:36:13.086Z,74.75
2022-10-08T00:38:40.716Z,75.41
2022-10-08T00:41:15.124Z,75.20
2022-10-08T00:43:51.720Z,75.58
2022-10-08T00:46:44.125Z,74.60
2022-10-08T00:49:13.575Z,75.08
2022-10-08T00:51:45.799Z,75.74
2022-10-08T00:54:13.577Z,75.45
2022-10-08T00:56:41.328Z,75.71
2022-10-08T00:59:10.659Z,75.15
2022-10-08T01:01:37.859Z,75.35
2022-10-08T01:04:07.328Z,74.96
2022-10-08T01:07:03.481Z,74.86
2022-10-08T01:09:32.903Z,74.66
2022-10-08T01:12:08.278Z,74.20
2022-10-08T01:14:58.212Z,74.58
2022-10-08T01:17:54.360Z,75.06
2022-10-08T01:21:05.171Z,75.08
2022-10-08T01:24:04.191Z,75.53
2022-10-08T01:26:39.993Z,75.69
2022-10-08T01:29:18.393Z,75.80
2022-10-08T01:31:50.736Z,75.99
2022-10-08T01:34:46.989Z,75.91
2022-10-08T01:37:36.566Z,75.51
2022-10-08T01:40:09.493Z,76.60
2022-10-08T01:42:40.014Z,76.03
2022-10-08T01:45:15.257Z,76.67
2022-10-08T01:47:44.354Z,76.28
2022-10-08T01:50:28.239Z,76.06
2022-10-08T01:53:02.986Z,76.65
2022-10-08T01:55:41.605Z,76.38
2022-10-08T01:58:16.013Z,76.75
2022-10-08T02:00:43.180Z,76.94
2022-10-08T02:03:13.447Z,77.47
2022-10-08T02:05:45.459Z,77.56
2022-10-08T02:08:12.195Z,77.21
2022-10-08T02:10:39.124Z,77.97
2022-10-08T02:13:06.031Z,77.01
2022-10-08T02:15:55.959Z,78.26
2022-10-08T02:18:41.958Z,78.46
2022-10-08T02:21:19.442Z,77.79
2022-10-08T02:24:26.885Z,78.09
2022-10-08T02:26:57.350Z,78.16
2022-10-08T02:29:32.874Z,78.95
2022-10-08T02:32:18.298Z,78.64
2022-10-08T02:34:59.952Z,78.73
2022-10-08T02:37:37.659Z,78.84
2022-10-08T02:40:10.053Z,78.59
2022-10-08T02:42:42.532Z,79.49
2022-10-08T02:45:22.268Z,79.95
2022-10-08T02:47:53.694Z,79.59
2022-10-08T02:50:23.389Z,79.39
2022-10-08T02:52:51.568Z,79.95
2022-10-08T02:55:29.530Z,80.17
2022-10-08T02:58:09.788Z,80.15
2022-10-08T03:00:43.249Z,80.16
2022-10-08T03:03:15.025Z,79.82
2022-10-08T03:05:42.862Z,79.97
2022-10-08T03:08:12.887Z,79.98
2022-10-08T03:10:41.376Z,80.11
2022-10-08T03:13:09.599Z,80.49
2022-10-08T03:15:38.064Z,80.14
2022-10-08T03:18:09.140Z,79.89
2022-10-08T03:20:55.885Z,80.16
2022-10-08T03:23:24.169Z,79.82
2022-10-08T03:25:50.817Z,79.94
2022-10-08T03:28:17.517Z,79.64
2022-10-08T03:30:44.239Z,79.02
2022-10-08T03:33:11.073Z,79.88
2022-10-08T03:35:37.758Z,79.36
2022-10-08T03:38:04.468Z,79.21
2022-10-08T03:40:31.063Z,79.10
2022-10-08T03:42:57.826Z,79.31
2022-10-08T03:45:24.466Z,79.14
2022-10-08T03:47:52.456Z,79.32
2022-10-08T03:50:21.222Z,79.76
2022-10-08T03:52:48.635Z,79.38
2022-10-08T03:55:15.582Z,78.90
2022-10-08T03:57:42.421Z,80.09
2022-10-08T04:00:10.116Z,79.43
2022-10-08T04:02:36.984Z,79.80
2022-10-08T04:05:03.881Z,78.71
2022-10-08T04:07:30.570Z,78.99
2022-10-08T04:09:57.223Z,78.31
2022-10-08T04:12:23.889Z,77.84
2022-10-08T04:14:50.535Z,77.60
2022-10-08T04:17:17.260Z,77.57
2022-10-08T04:19:43.913Z,77.59
2022-10-08T04:22:10.624Z,77.18
2022-10-08T04:24:37.261Z,77.03
2022-10-08T04:27:04.089Z,77.96
2022-10-08T04:29:30.781Z,77.25
2022-10-08T04:31:58.497Z,77.28
2022-10-08T04:34:25.179Z,77.78
2022-10-08T04:36:51.947Z,77.79
2022-10-08T04:39:18.591Z,77.80
2022-10-08T04:41:45.289Z,78.72
2022-10-08T04:44:11.964Z,78.59
2022-10-08T04:46:38.739Z,78.58
2022-10-08T04:49:05.410Z,78.77
2022-10-08T04:51:32.081Z,78.55
2022-10-08T04:53:58.789Z,78.27
2022-10-08T04:56:28.169Z,78.67
2022-10-08T04:58:55.619Z,78.64
2022-10-08T05:01:23.582Z,79.15
2022-10-08T05:03:53.135Z,79.60
2022-10-08T05:06:22.914Z,79.28
2022-10-08T05:08:50.051Z,79.02
2022-10-08T05:11:18.087Z,79.65
2022-10-08T05:13:50.345Z,78.51
2022-10-08T05:16:19.908Z,79.54
2022-10-08T05:18:47.725Z,79.79
2022-10-08T05:21:16.461Z,79.47
2022-10-08T05:23:43.884Z,79.84
2022-10-08T05:26:28.770Z,79.83
2022-10-08T05:29:08.146Z,79.07
2022-10-08T05:31:37.250Z,78.89
2022-10-08T05:34:04.413Z,78.97
2022-10-08T05:36:33.314Z,79.35
2022-10-08T05:39:01.381Z,79.33
2022-10-08T05:41:30.390Z,79.12
2022-10-08T05:43:58.841Z,79.46
2022-10-08T05:46:28.591Z,78.86
2022-10-08T05:48:57.571Z,78.08
2022-10-08T05:51:24.294Z,77.87
2022-10-08T05:53:52.607Z,77.78
2022-10-08T05:56:22.714Z,77.31
2022-10-08T05:58:50.343Z,77.39
2022-10-08T06:01:28.072Z,76.56
2022-10-08T06:04:05.685Z,76.87
2022-10-08T06:06:36.599Z,76.98
2022-10-08T06:09:03.967Z,76.84
2022-10-08T06:11:34.072Z,77.18
2022-10-08T06:14:02.053Z,77.32
2022-10-08T06:16:30.108Z,76.78
2022-10-08T06:18:57.007Z,77.17
2022-10-08T06:21:26.604Z,76.83
2022-10-08T06:23:56.295Z,76.82
2022-10-08T06:26:27.357Z,76.39
2022-10-08T06:28:56.482Z,76.56
2022-10-08T06:31:23.206Z,76.21
2022-10-08T06:33:50.493Z,76.38
2022-10-08T06:36:20.379Z,76.59
2022-10-08T06:38:51.168Z,76.37
2022-10-08T06:41:18.652Z,76.13
2022-10-08T06:43:45.848Z,75.56
2022-10-08T06:46:12.876Z,75.50
2022-10-08T06:48:51.417Z,75.17
2022-10-08T06:51:19.084Z,74.89
2022-10-08T06:53:52.391Z,74.87
2022-10-08T06:56:19.087Z,74.20
2022-10-08T06:58:47.532Z,74.58
2022-10-08T07:01:17.952Z,74.18
2022-10-08T07:03:58.239Z,74.65
2022-10-08T07:06:25.805Z,73.71
2022-10-08T07:08:54.911Z,73.10
2022-10-08T07:11:22.669Z,73.09
2022-10-08T07:13:49.348Z,72.91
2022-10-08T07:16:21.642Z,72.36
2022-10-08T07:18:50.620Z,71.70
2022-10-08T07:21:19.641Z,71.62
2022-10-08T07:23:46.561Z,72.21
2022-10-08T07:26:16.206Z,71.63
2022-10-08T07:28:48.758Z,71.92
2022-10-08T07:31:19.019Z,71.22
2022-10-08T07:33:45.868Z,70.79
2022-10-08T07:36:14.899Z,71.04
2022-10-08T07:38:41.831Z,70.79
2022-10-08T07:41:10.065Z,70.84
2022-10-08T07:43:37.689Z,70.52
2022-10-08T07:46:05.903Z,69.96
2022-10-08T07:48:34.275Z,69.60
2022-10-08T07:51:15.676Z,69.26
2022-10-08T07:53:43.631Z,68.15
2022-10-08T07:56:12.792Z,68.81
2022-10-08T07:58:40.417Z,69.65
2022-10-08T08:01:10.470Z,68.63
2022-10-08T08:03:37.595Z,68.29
2022-10-08T08:06:06.044Z,67.83
2022-10-08T08:08:34.963Z,67.78
2022-10-08T08:11:03.263Z,67.71
2022-10-08T08:13:36.797Z,67.73
2022-10-08T08:16:18.183Z,67.84
2022-10-08T08:18:48.246Z,67.28
2022-10-08T08:21:27.066Z,67.52
2022-10-08T08:23:56.464Z,67.76
2022-10-08T08:26:29.213Z,67.92
2022-10-08T08:28:58.791Z,67.41
2022-10-08T08:31:29.243Z,67.37
2022-10-08T08:33:59.853Z,66.92
2022-10-08T08:36:29.613Z,66.22
2022-10-08T08:38:57.027Z,66.29
2022-10-08T08:41:44.851Z,66.39
2022-10-08T08:44:18.693Z,66.82
2022-10-08T08:46:52.886Z,65.59
2022-10-08T08:49:44.218Z,65.50
2022-10-08T08:52:17.876Z,64.80
2022-10-08T08:54:49.606Z,63.64
2022-10-08T08:57:34.673Z,62.23
2022-10-08T09:00:19.840Z,60.33
2022-10-08T09:02:57.906Z,57.50
2022-10-08T09:05:26.734Z,56.28
2022-10-08T09:08:02.686Z,55.64
2022-10-08T09:10:42.887Z,53.33
2022-10-08T09:13:22.186Z,52.82
2022-10-08T09:15:48.918Z,50.22
2022-10-08T09:18:16.733Z,49.93
2022-10-08T09:20:44.444Z,49.75
2022-10-08T09:23:22.778Z,48.34
2022-10-08T09:25:55.890Z,48.10
2022-10-08T09:28:50.445Z,47.39
2022-10-08T09:31:32.576Z,48.11
2022-10-08T09:34:15.650Z,48.94
2022-10-08T09:36:52.531Z,50.74
2022-10-08T09:39:20.754Z,48.67
2022-10-08T09:42:04.569Z,48.40
2022-10-08T09:44:44.876Z,48.68
2022-10-08T09:47:16.465Z,49.43
2022-10-08T09:49:45.309Z,50.53
2022-10-08T09:52:17.607Z,49.98
2022-10-08T09:54:49.006Z,51.23
2022-10-08T09:57:21.403Z,51.51
2022-10-08T09:59:54.909Z,50.85
2022-10-08T10:02:35.384Z,49.03
2022-10-08T10:05:05.589Z,49.24
2022-10-08T10:07:42.075Z,49.43
2022-10-08T10:10:17.937Z,50.90
2022-10-08T10:12:50.284Z,51.74
2022-10-08T10:15:30.100Z,50.61
2022-10-08T10:18:02.248Z,49.68
2022-10-08T10:20:38.152Z,48.21
2022-10-08T10:23:30.798Z,46.58
2022-10-08T10:26:07.705Z,46.75
2022-10-08T10:28:52.971Z,45.66
2022-10-08T10:31:25.904Z,45.04
2022-10-08T10:34:04.341Z,44.91
2022-10-08T10:36:43.813Z,45.37
2022-10-08T10:39:29.246Z,48.14
2022-10-08T10:41:59.860Z,46.34
2022-10-08T10:44:35.426Z,48.38
2022-10-08T10:47:04.036Z,48.82
2022-10-08T10:49:40.540Z,48.99
2022-10-08T10:52:49.218Z,49.37
2022-10-08T10:55:21.894Z,51.14
2022-10-08T10:58:22.498Z,52.11
2022-10-08T11:01:07.619Z,52.67
2022-10-08T11:04:02.435Z,52.48
2022-10-08T11:06:48.388Z,54.17
2022-10-08T11:09:40.976Z,54.93
2022-10-08T11:12:30.925Z,55.46
2022-10-08T11:15:35.111Z,56.07
2022-10-08T11:18:25.407Z,55.87
2022-10-08T11:21:05.360Z,54.91
2022-10-08T11:23:54.719Z,55.28
2022-10-08T11:26:36.681Z,54.50
2022-10-08T11:29:15.756Z,54.53
2022-10-08T11:31:45.369Z,53.77
2022-10-08T11:34:36.116Z,54.49
2022-10-08T11:37:21.705Z,54.67
2022-10-08T11:39:54.378Z,54.82
2022-10-08T11:42:30.212Z,54.79
2022-10-08T11:45:33.745Z,55.86
2022-10-08T11:48:21.088Z,54.16
2022-10-08T11:50:47.937Z,55.76
2022-10-08T11:53:21.017Z,54.15
2022-10-08T11:55:57.287Z,55.52
2022-10-08T11:58:30.959Z,53.25
2022-10-08T12:01:08.983Z,52.44
2022-10-08T12:03:42.983Z,53.33
2022-10-08T12:06:34.650Z,52.18
2022-10-08T12:09:02.859Z,53.73
2022-10-08T12:11:32.488Z,52.57
2022-10-08T12:14:11.474Z,52.38
2022-10-08T12:16:47.429Z,52.39
2022-10-08T12:19:32.939Z,52.80
2022-10-08T12:22:03.486Z,50.88
2022-10-08T12:24:39.340Z,51.65
2022-10-08T12:27:18.432Z,52.04
2022-10-08T12:29:58.850Z,52.54
2022-10-08T12:32:28.249Z,51.01
2022-10-08T12:34:56.185Z,51.46
2022-10-08T12:37:49.720Z,51.12
2022-10-08T12:40:31.479Z,51.87
2022-10-08T12:43:12.055Z,51.38
2022-10-08T12:45:54.771Z,51.12
2022-10-08T12:48:49.316Z,51.44
2022-10-08T12:51:45.532Z,51.53
2022-10-08T12:54:31.574Z,50.97
2022-10-08T12:56:59.779Z,51.52
2022-10-08T12:59:32.049Z,51.51
2022-10-08T13:01:58.947Z,51.64
2022-10-08T13:04:29.958Z,52.09
2022-10-08T13:06:56.828Z,52.70
2022-10-08T13:09:27.764Z,52.04
2022-10-08T13:12:02.118Z,51.37
2022-10-08T13:14:36.080Z,51.42
2022-10-08T13:17:03.935Z,51.83
2022-10-08T13:19:38.970Z,51.55
2022-10-08T13:22:26.121Z,52.37
2022-10-08T13:24:52.985Z,52.17
2022-10-08T13:27:27.225Z,52.99
2022-10-08T13:29:55.543Z,51.77
2022-10-08T13:32:25.887Z,52.00
2022-10-08T13:34:58.818Z,51.83
2022-10-08T13:37:36.277Z,52.37
2022-10-08T13:40:12.498Z,51.98
2022-10-08T13:42:49.001Z,51.75
2022-10-08T13:45:27.773Z,52.61
2022-10-08T13:47:55.090Z,52.29
2022-10-08T13:50:23.049Z,53.26
2022-10-08T13:52:54.695Z,54.53
2022-10-08T13:55:26.779Z,53.65
2022-10-08T13:57:54.638Z,53.10
2022-10-08T14:00:22.649Z,54.07
2022-10-08T14:02:51.746Z,52.50
2022-10-08T14:05:19.726Z,51.96
2022-10-08T14:07:50.903Z,51.77
2022-10-08T14:10:19.027Z,52.00
2022-10-08T14:12:46.016Z,53.18
2022-10-08T14:15:14.128Z,53.90
2022-10-08T14:17:40.907Z,54.17
2022-10-08T14:20:09.313Z,53.84
2022-10-08T14:22:39.225Z,54.25
2022-10-08T14:25:17.943Z,53.95
2022-10-08T14:27:45.269Z,53.60
2022-10-08T14:30:13.839Z,54.66
2022-10-08T14:32:40.892Z,55.14
2022-10-08T14:35:08.156Z,55.15
2022-10-08T14:37:35.479Z,55.37
2022-10-08T14:40:03.971Z,55.39
2022-10-08T14:42:30.756Z,55.34
2022-10-08T14:44:57.464Z,55.62
2022-10-08T14:47:24.270Z,55.92
2022-10-08T14:49:51.009Z,56.26
2022-10-08T14:52:17.870Z,56.10
2022-10-08T14:54:44.558Z,56.25
2022-10-08T14:57:11.259Z,55.20
2022-10-08T14:59:40.231Z,55.64
2022-10-08T15:02:10.468Z,55.91
2022-10-08T15:04:37.350Z,56.41
2022-10-08T15:07:04.406Z,56.35
2022-10-08T15:09:31.550Z,56.65
2022-10-08T15:11:58.472Z,55.91
2022-10-08T15:14:58.688Z,57.09
2022-10-08T15:17:25.502Z,56.00
2022-10-08T15:19:53.002Z,56.04
2022-10-08T15:22:19.663Z,55.82
2022-10-08T15:24:46.313Z,55.24
2022-10-08T15:27:15.248Z,55.78
2022-10-08T15:29:45.235Z,55.63
2022-10-08T15:32:12.200Z,55.93
2022-10-08T15:34:39.042Z,55.85
2022-10-08T15:37:08.008Z,55.32
2022-10-08T15:39:36.035Z,56.12
2022-10-08T15:42:02.991Z,55.47
2022-10-08T15:44:31.225Z,55.71
2022-10-08T15:47:06.688Z,55.42
2022-10-08T15:49:37.726Z,55.90
2022-10-08T15:52:09.398Z,56.44
2022-10-08T15:54:40.516Z,56.13
2022-10-08T15:57:09.562Z,55.83
2022-10-08T15:59:36.665Z,55.92
2022-10-08T16:02:04.441Z,56.63
2022-10-08T16:04:31.276Z,55.67
2022-10-08T16:06:58.489Z,57.02
2022-10-08T16:09:25.499Z,57.26
2022-10-08T16:11:52.209Z,57.22
2022-10-08T16:14:24.662Z,57.53
2022-10-08T16:16:51.991Z,58.15
2022-10-08T16:19:21.478Z,57.57
2022-10-08T16:21:50.109Z,58.50
2022-10-08T16:24:17.512Z,58.28
2022-10-08T16:26:45.225Z,58.56
2022-10-08T16:29:13.751Z,58.87
2022-10-08T16:31:42.247Z,59.31
2022-10-08T16:34:14.348Z,59.87
2022-10-08T16:36:41.687Z,60.10
2022-10-08T16:39:09.026Z,60.61
2022-10-08T16:41:37.441Z,60.22
2022-10-08T16:44:12.775Z,60.82
2022-10-08T16:46:43.124Z,61.10
2022-10-08T16:49:22.696Z,61.76
2022-10-08T16:51:52.900Z,62.63
2022-10-08T16:54:19.747Z,62.42
2022-10-08T16:56:46.901Z,62.53
2022-10-08T16:59:19.410Z,62.59
2022-10-08T17:01:49.588Z,62.73
2022-10-08T17:04:17.503Z,62.56
2022-10-08T17:06:44.334Z,63.07
2022-10-08T17:09:11.679Z,63.10
2022-10-08T17:11:39.275Z,63.52
2022-10-08T17:14:07.711Z,63.83
2022-10-08T17:16:35.967Z,64.64
2022-10-08T17:19:04.374Z,65.41
2022-10-08T17:21:34.748Z,65.44
2022-10-08T17:24:02.842Z,65.53
2022-10-08T17:26:30.926Z,65.41
2022-10-08T17:29:01.647Z,65.55
2022-10-08T17:31:31.907Z,66.03
2022-10-08T17:34:02.801Z,66.42
2022-10-08T17:36:35.688Z,66.41
2022-10-08T17:39:05.431Z,66.65
2022-10-08T17:41:37.021Z,67.12
2022-10-08T17:44:06.934Z,67.14
2022-10-08T17:46:36.437Z,66.92
2022-10-08T17:49:03.646Z,66.94
2022-10-08T17:51:31.323Z,67.12
2022-10-08T17:54:04.212Z,67.16
2022-10-08T17:56:31.812Z,67.71
2022-10-08T17:58:58.958Z,67.46
2022-10-08T18:01:28.354Z,67.82
2022-10-08T18:04:03.589Z,68.11
2022-10-08T18:06:31.748Z,68.74
2022-10-08T18:09:01.635Z,69.40
2022-10-08T18:11:30.349Z,69.79
2022-10-08T18:13:57.117Z,70.34
2022-10-08T18:16:25.300Z,70.80
2022-10-08T18:18:52.289Z,71.51
2022-10-08T18:21:20.176Z,71.44
2022-10-08T18:23:48.960Z,71.91
2022-10-08T18:26:24.252Z,72.35
2022-10-08T18:28:55.807Z,72.47
2022-10-08T18:31:28.699Z,72.65
2022-10-08T18:34:02.629Z,72.77
2022-10-08T18:36:31.942Z,73.61
2022-10-08T18:38:59.807Z,73.55
2022-10-08T18:41:29.718Z,74.45
2022-10-08T18:43:59.402Z,74.93
2022-10-08T18:46:27.749Z,74.82
2022-10-08T18:48:55.156Z,75.47
2022-10-08T18:51:24.719Z,75.56
2022-10-08T18:53:52.907Z,76.21
2022-10-08T18:56:22.033Z,76.65
2022-10-08T18:58:50.648Z,77.32
2022-10-08T19:01:28.307Z,77.31
2022-10-08T19:03:58.011Z,77.45
2022-10-08T19:06:27.822Z,77.91
2022-10-08T19:08:55.933Z,78.12
2022-10-08T19:11:30.187Z,78.16
2022-10-08T19:13:56.859Z,77.85
2022-10-08T19:16:23.717Z,78.06
2022-10-08T19:18:53.477Z,78.17
2022-10-08T19:21:20.767Z,78.46
2022-10-08T19:23:47.731Z,78.01
2022-10-08T19:26:15.187Z,78.62
2022-10-08T19:28:50.104Z,78.79
2022-10-08T19:31:24.239Z,79.18
2022-10-08T19:33:56.101Z,78.99
2022-10-08T19:36:24.900Z,79.51
2022-10-08T19:38:53.193Z,79.85
2022-10-08T19:41:20.664Z,80.27
2022-10-08T19:43:47.825Z,80.73
2022-10-08T19:46:14.738Z,81.13
2022-10-08T19:48:41.542Z,80.93
2022-10-08T19:51:10.954Z,81.53
2022-10-08T19:53:38.617Z,81.81
2022-10-08T19:56:10.021Z,82.25
2022-10-08T19:58:37.403Z,81.41
2022-10-08T20:01:09.778Z,82.77
2022-10-08T20:03:37.136Z,83.07
2022-10-08T20:06:09.494Z,83.96
2022-10-08T20:08:36.947Z,83.88
2022-10-08T20:11:08.794Z,83.61
2022-10-08T20:13:36.210Z,84.34
2022-10-08T20:16:12.984Z,84.65
2022-10-08T20:18:39.866Z,84.25
2022-10-08T20:21:09.690Z,84.41
2022-10-08T20:23:37.899Z,84.84
2022-10-08T20:26:26.106Z,84.75
2022-10-08T20:29:04.245Z,84.51
2022-10-08T20:31:33.206Z,85.22
2022-10-08T20:34:08.493Z,84.54
2022-10-08T20:36:35.302Z,84.89
2022-10-08T20:39:02.087Z,85.02
2022-10-08T20:41:31.100Z,84.75
2022-10-08T20:44:03.210Z,84.95
2022-10-08T20:46:31.272Z,85.43
2022-10-08T20:48:58.525Z,85.21
2022-10-08T20:51:27.071Z,85.46
2022-10-08T20:53:53.660Z,86.16
2022-10-08T20:56:21.966Z,86.00
2022-10-08T20:58:49.630Z,86.19
2022-10-08T21:01:19.811Z,86.37
2022-10-08T21:03:47.484Z,86.75
2022-10-08T21:06:20.161Z,86.64
2022-10-08T21:08:48.957Z,87.13
2022-10-08T21:11:21.436Z,86.92
2022-10-08T21:13:48.473Z,86.89
2022-10-08T21:16:21.634Z,87.56
2022-10-08T21:18:49.604Z,87.69
2022-10-08T21:21:16.794Z,87.30
2022-10-08T21:23:43.885Z,88.00
2022-10-08T21:26:19.294Z,87.34
2022-10-08T21:28:47.987Z,87.25
2022-10-08T21:31:15.961Z,87.13
2022-10-08T21:33:45.246Z,87.90
2022-10-08T21:36:14.972Z,87.62
2022-10-08T21:38:42.595Z,88.48
2022-10-08T21:41:12.506Z,87.76
2022-10-08T21:43:50.899Z,88.01
2022-10-08T21:46:23.369Z,88.21
2022-10-08T21:48:58.729Z,88.73
2022-10-08T21:51:26.641Z,88.19
2022-10-08T21:53:56.070Z,88.44
2022-10-08T21:56:25.806Z,88.16
2022-10-08T21:58:58.264Z,88.35
2022-10-08T22:01:29.752Z,88.95
2022-10-08T22:04:11.005Z,88.52
2022-10-08T22:06:41.251Z,88.22
2022-10-08T22:09:12.246Z,88.75
2022-10-08T22:11:39.645Z,88.29
2022-10-08T22:14:07.040Z,88.45
2022-10-08T22:16:34.187Z,89.10
2022-10-08T22:19:01.268Z,89.20
2022-10-08T22:24:17.861Z,89.07
2022-10-08T22:26:50.523Z,88.48
2022-10-08T22:29:17.362Z,88.66
2022-10-08T22:31:44.404Z,88.20
2022-10-08T22:34:11.271Z,88.62
2022-10-08T22:36:44.545Z,88.01
2022-10-08T22:39:11.857Z,88.68
2022-10-08T22:41:38.679Z,88.35
2022-10-08T22:44:05.870Z,87.54
2022-10-08T22:46:41.171Z,87.96
2022-10-08T22:49:10.436Z,87.50
2022-10-08T22:51:38.982Z,87.76
2022-10-08T22:54:05.785Z,87.52
2022-10-08T22:56:32.822Z,87.52
2022-10-08T22:59:00.525Z,87.60
2022-10-08T23:01:29.422Z,87.98
2022-10-08T23:03:56.653Z,87.51
2022-10-08T23:06:25.988Z,88.30
2022-10-08T23:09:01.598Z,88.11
2022-10-08T23:11:29.538Z,88.27
2022-10-08T23:13:57.964Z,87.60
2022-10-08T23:16:26.430Z,87.79
2022-10-08T23:18:56.619Z,87.66
2022-10-08T23:21:24.016Z,87.92
2022-10-08T23:23:54.437Z,88.25
2022-10-08T23:26:24.674Z,87.89
2022-10-08T23:28:53.278Z,88.17
2022-10-08T23:31:22.887Z,87.75
2022-10-08T23:33:51.667Z,87.87
2022-10-08T23:36:21.571Z,87.58
2022-10-08T23:38:48.681Z,87.48
2022-10-08T23:41:15.441Z,87.83
2022-10-08T23:43:44.183Z,87.76
2022-10-08T23:46:12.534Z,87.56
2022-10-08T23:48:39.748Z,87.51
2022-10-08T23:51:07.735Z,87.97
2022-10-08T23:53:34.993Z,88.18
2022-10-08T23:56:02.416Z,88.27
2022-10-08T23:58:29.185Z,88.50
